Time;durP1;ratioP1;P1;durP2;ratioP2;P2;SDS_P1;SDS_P2;PMS_P1;PMS_P2;Temp;Humidity;BMP_temperature;BMP_pressure;BME280_temperature;BME280_humidity;BME280_pressure;Samples;Min_cycle;Max_cycle;Signal;HPM_P1;HPM_P2
2023/11/06 00:03:06;;;;;;;1.50;1.20;;;;;;;9.53;83.79;97894.71;136787;1280;22978;-70
2023/11/06 00:06:08;;;;;;;3.10;1.40;;;;;;;9.60;83.70;97901.63;136369;1284;22628;-70
2023/11/06 00:09:16;;;;;;;1.20;1.10;;;;;;;9.67;83.54;97908.47;136375;1284;22465;-70
2023/11/06 00:12:24;;;;;;;1.00;1.00;;;;;;;9.73;83.35;97918.27;136362;1284;22497;-70
2023/11/06 00:15:28;;;;;;;1.50;1.10;;;;;;;9.75;83.05;97923.81;136365;1284;22454;-70
2023/11/06 00:18:29;;;;;;;2.30;1.30;;;;;;;9.76;82.82;97939.20;136353;1284;23228;-70
2023/11/06 00:21:33;;;;;;;2.50;1.20;;;;;;;9.73;82.86;97947.70;136380;1284;22525;-70
2023/11/06 00:24:33;;;;;;;2.10;1.30;;;;;;;9.66;82.66;97949.17;136344;1284;22469;-70
2023/11/06 00:27:38;;;;;;;1.30;1.10;;;;;;;9.64;82.66;97954.86;136352;1284;22451;-70
2023/11/06 00:30:38;;;;;;;3.50;1.40;;;;;;;9.64;82.79;97963.45;136376;1284;23211;-70
2023/11/06 00:33:39;;;;;;;2.00;1.10;;;;;;;9.62;82.80;97974.16;136394;1284;22429;-71
2023/11/06 00:36:40;;;;;;;;;;;;;;;9.58;82.58;97983.77;136405;1284;22448;-70
2023/11/06 00:39:43;;;;;;;1.50;1.20;;;;;;;9.54;82.85;97992.79;136393;1284;22569;-71
2023/11/06 00:42:47;;;;;;;1.40;1.10;;;;;;;9.49;82.84;98001.21;136389;1284;23253;-70
2023/11/06 00:45:49;;;;;;;2.80;1.20;;;;;;;9.46;83.15;98012.25;136384;1281;22412;-70
2023/11/06 00:49:10;;;;;;;1.20;1.10;;;;;;;9.42;83.22;98017.02;136381;1284;23102;-71
2023/11/06 00:52:21;;;;;;;3.40;1.70;;;;;;;9.43;83.39;98023.74;136360;1284;23586;-70
2023/11/06 00:55:22;;;;;;;6.60;1.90;;;;;;;9.43;83.53;98030.89;136369;1284;22466;-70
2023/11/06 00:58:22;;;;;;;4.60;1.70;;;;;;;9.42;83.53;98037.88;136366;1284;23608;-70
2023/11/06 01:01:23;;;;;;;0.90;0.90;;;;;;;9.43;83.67;98037.43;136379;1284;22458;-70
2023/11/06 01:04:23;;;;;;;;;;;;;;;9.49;83.78;98050.64;136360;1284;22463;-70
2023/11/06 01:07:24;;;;;;;4.20;1.30;;;;;;;9.50;83.62;98056.95;136378;1282;22446;-71
2023/11/06 01:10:28;;;;;;;1.00;0.90;;;;;;;9.52;83.72;98063.96;136384;1284;22409;-70
2023/11/06 01:13:34;;;;;;;4.80;1.70;;;;;;;9.55;83.59;98066.23;136407;1284;23213;-70
2023/11/06 01:16:50;;;;;;;1.60;1.30;;;;;;;9.60;83.58;98066.77;136358;1284;22457;-70
2023/11/06 01:19:50;;;;;;;0.90;0.80;;;;;;;9.65;83.43;98068.34;136382;1284;22527;-70
2023/11/06 01:23:11;;;;;;;1.40;1.30;;;;;;;9.72;83.14;98073.29;136372;1284;22468;-70
2023/11/06 01:26:11;;;;;;;2.60;1.20;;;;;;;9.80;82.64;98073.20;136263;1284;22433;-70
2023/11/06 01:29:12;;;;;;;2.70;0.80;;;;;;;9.85;82.14;98080.27;136378;1283;22302;-70
2023/11/06 01:32:13;;;;;;;2.70;1.10;;;;;;;9.89;81.97;98091.89;136334;1284;22464;-70
2023/11/06 01:35:13;;;;;;;2.00;1.10;;;;;;;9.92;81.72;98090.88;136384;1284;22446;-70
2023/11/06 01:38:14;;;;;;;;;;;;;;;9.94;81.43;98096.48;136398;1284;23284;-70
2023/11/06 01:41:14;;;;;;;2.80;1.10;;;;;;;9.94;81.37;98111.88;136411;1284;22480;-70
2023/11/06 01:44:15;;;;;;;2.10;1.10;;;;;;;9.94;81.11;98117.21;136375;1284;22463;-71
2023/11/06 01:47:16;;;;;;;3.60;1.50;;;;;;;9.94;81.02;98124.39;136391;1281;23523;-70
2023/11/06 01:50:17;;;;;;;2.10;1.00;;;;;;;9.94;80.93;98127.08;136399;1284;22389;-71
2023/11/06 01:53:17;;;;;;;4.10;0.80;;;;;;;9.94;80.69;98129.34;136452;1279;22975;-70
2023/11/06 01:56:18;;;;;;;;;;;;;;;9.95;80.40;98136.30;136745;1279;22402;-70
2023/11/06 01:59:19;;;;;;;3.70;1.20;;;;;;;9.94;80.18;98142.95;136641;1280;22416;-70
2023/11/06 02:02:28;;;;;;;1.60;1.00;;;;;;;9.93;79.77;98145.17;136663;1279;22233;-70
2023/11/06 02:05:30;;;;;;;2.70;0.80;;;;;;;9.94;79.68;98155.00;136651;1279;22382;-70
2023/11/06 02:08:32;;;;;;;2.70;0.80;;;;;;;9.94;79.33;98159.81;136705;1279;23002;-71
2023/11/06 02:11:33;;;;;;;1.40;1.00;;;;;;;9.92;78.92;98161.34;136716;1279;23524;-70
2023/11/06 02:14:53;;;;;;;2.80;1.50;;;;;;;9.91;78.87;98165.13;136747;1279;23253;-70
2023/11/06 02:17:56;;;;;;;2.80;1.30;;;;;;;9.89;78.55;98166.73;136754;1274;22440;-70
2023/11/06 02:20:57;;;;;;;2.40;1.20;;;;;;;9.87;78.22;98176.39;136757;1279;22409;-70
2023/11/06 02:23:57;;;;;;;1.50;1.10;;;;;;;9.84;78.47;98183.91;136765;1279;22916;-70
2023/11/06 02:26:58;;;;;;;1.20;0.80;;;;;;;9.80;78.39;98198.50;136732;1279;22362;-70
2023/11/06 02:30:04;;;;;;;1.50;0.90;;;;;;;9.79;78.04;98214.75;136735;1279;23250;-70
2023/11/06 02:33:19;;;;;;;1.80;1.00;;;;;;;9.79;78.43;98223.80;136763;1279;22395;-70
2023/11/06 02:36:23;;;;;;;4.30;1.10;;;;;;;9.76;78.64;98223.23;136755;1279;22369;-71
2023/11/06 02:39:23;;;;;;;;;;;;;;;9.70;79.10;98231.31;136760;1279;22384;-70
2023/11/06 02:42:23;;;;;;;1.70;1.10;;;;;;;9.61;79.23;98238.71;136759;1279;22395;-70
2023/11/06 02:45:24;;;;;;;1.90;1.00;;;;;;;9.57;79.49;98243.36;136729;1276;23203;-71
2023/11/06 02:48:28;;;;;;;3.20;1.00;;;;;;;9.51;79.62;98246.74;136747;1277;23302;-71
2023/11/06 02:51:29;;;;;;;3.30;1.40;;;;;;;9.46;79.76;98251.39;136774;1279;22424;-70
2023/11/06 02:54:32;;;;;;;1.30;1.20;;;;;;;9.38;79.60;98257.19;136775;1279;22468;-71
2023/11/06 02:57:34;;;;;;;2.40;1.30;;;;;;;9.31;79.73;98260.33;136765;1279;22441;-70
2023/11/06 03:00:35;;;;;;;2.50;0.90;;;;;;;9.26;79.63;98262.80;136754;1276;22271;-70
2023/11/06 03:03:35;;;;;;;2.80;1.20;;;;;;;9.24;79.61;98269.65;136756;1279;23549;-70
2023/11/06 03:06:36;;;;;;;1.00;0.90;;;;;;;9.22;79.41;98275.23;136719;1279;22437;-70
2023/11/06 03:09:37;;;;;;;3.30;1.30;;;;;;;9.22;78.91;98277.30;136743;1279;22463;-70
2023/11/06 03:12:37;;;;;;;;;;;;;;;9.23;78.75;98281.73;136761;1279;23225;-71
2023/11/06 03:15:41;;;;;;;1.20;0.80;;;;;;;9.23;78.25;98285.76;136743;1279;22473;-71
2023/11/06 03:18:44;;;;;;;2.40;1.00;;;;;;;9.22;78.13;98292.98;136682;1279;22406;-70
2023/11/06 03:21:55;;;;;;;;;;;;;;;9.19;77.86;98293.67;136815;1279;23112;-71
2023/11/06 03:25:01;;;;;;;3.80;1.10;;;;;;;9.17;77.55;98297.54;136753;1272;22390;-70
2023/11/06 03:28:05;;;;;;;1.90;1.10;;;;;;;9.17;77.28;98302.22;136658;1279;22448;-70
2023/11/06 03:31:06;;;;;;;2.50;1.00;;;;;;;9.17;76.68;98302.61;136731;1279;22523;-71
2023/11/06 03:34:11;;;;;;;3.00;1.40;;;;;;;9.17;76.30;98307.45;136739;1279;22424;-70
2023/11/06 03:37:19;;;;;;;4.40;0.90;;;;;;;9.21;76.12;98309.34;136733;1279;22470;-70
2023/11/06 03:40:24;;;;;;;2.00;1.00;;;;;;;9.20;75.70;98311.61;136637;1279;22433;-70
2023/11/06 03:43:27;;;;;;;6.00;1.10;;;;;;;9.18;75.50;98316.06;136764;1279;23273;-70
2023/11/06 03:46:29;;;;;;;4.80;1.20;;;;;;;9.16;75.17;98318.31;136665;1279;22428;-70
2023/11/06 03:49:39;;;;;;;3.10;1.20;;;;;;;9.12;74.91;98328.58;136760;1279;22464;-70
2023/11/06 03:52:50;;;;;;;1.00;0.90;;;;;;;9.06;74.87;98333.16;136693;1279;22425;-70
2023/11/06 03:55:54;;;;;;;3.00;1.00;;;;;;;9.04;74.64;98334.10;136645;1279;22255;-70
2023/11/06 03:58:58;;;;;;;4.80;1.10;;;;;;;9.05;74.26;98346.10;136774;1279;22361;-70
2023/11/06 04:02:01;;;;;;;2.60;1.20;;;;;;;9.04;74.38;98354.54;136754;1279;22575;-70
2023/11/06 04:05:16;;;;;;;2.40;0.80;;;;;;;9.03;74.08;98353.88;136774;1279;22415;-70
2023/11/06 04:08:17;;;;;;;3.50;1.10;;;;;;;9.01;74.08;98365.27;136788;1279;22876;-70
2023/11/06 04:11:17;;;;;;;5.70;1.00;;;;;;;8.99;73.93;98369.04;136799;1279;22464;-70
2023/11/06 04:14:18;;;;;;;2.40;1.00;;;;;;;8.96;74.11;98369.17;136744;1279;22363;-70
2023/11/06 04:17:18;;;;;;;3.30;1.10;;;;;;;8.92;74.12;98376.73;136786;1276;23352;-70
2023/11/06 04:20:19;;;;;;;;;;;;;;;8.86;74.01;98378.94;136798;1279;23107;-70
2023/11/06 04:23:22;;;;;;;2.90;1.00;;;;;;;8.79;73.96;98383.64;136749;1279;22441;-71
2023/11/06 04:26:28;;;;;;;2.10;1.20;;;;;;;8.71;74.10;98390.72;136758;1279;22468;-70
2023/11/06 04:29:28;;;;;;;1.50;0.80;;;;;;;8.63;74.22;98392.30;136698;1279;22444;-70
2023/11/06 04:32:34;;;;;;;2.90;1.60;;;;;;;8.56;74.34;98399.26;136754;1279;22519;-70
2023/11/06 04:35:42;;;;;;;3.90;1.20;;;;;;;8.47;74.52;98411.62;136686;1279;23169;-70
2023/11/06 04:38:43;;;;;;;1.60;1.10;;;;;;;8.37;74.56;98413.05;136718;1279;22429;-70
2023/11/06 04:41:44;;;;;;;2.60;1.20;;;;;;;8.33;74.68;98417.45;136755;1279;22402;-70
2023/11/06 04:44:50;;;;;;;2.10;1.30;;;;;;;8.30;74.85;98424.17;136757;1279;22359;-70
2023/11/06 04:47:53;;;;;;;2.70;1.40;;;;;;;8.29;75.14;98427.30;136745;1279;23095;-70
2023/11/06 04:50:59;;;;;;;5.90;1.70;;;;;;;8.26;75.22;98432.39;136772;1279;22408;-70
2023/11/06 04:54:10;;;;;;;;;;;;;;;8.22;75.25;98446.42;136775;1279;23124;-70
2023/11/06 04:57:16;;;;;;;3.10;0.90;;;;;;;8.17;75.44;98449.23;136750;1279;22431;-70
2023/11/06 05:00:19;;;;;;;1.50;1.20;;;;;;;8.10;75.76;98453.25;136783;1279;22339;-70
2023/11/06 05:03:26;;;;;;;1.50;1.30;;;;;;;8.02;76.02;98456.27;136775;1279;22440;-70
2023/11/06 05:06:32;;;;;;;1.80;1.10;;;;;;;7.95;76.30;98458.25;136782;1279;22448;-70
2023/11/06 05:09:32;;;;;;;3.20;1.30;;;;;;;7.91;76.59;98464.23;136753;1279;22455;-70
2023/11/06 05:12:38;;;;;;;1.70;1.40;;;;;;;7.86;76.85;98468.86;136765;1279;22511;-70
2023/11/06 05:15:44;;;;;;;4.10;1.60;;;;;;;7.81;77.10;98464.95;136760;1279;22532;-70
2023/11/06 05:18:44;;;;;;;2.80;1.40;;;;;;;7.77;77.32;98474.38;136770;1276;23210;-70
2023/11/06 05:21:49;;;;;;;2.60;1.60;;;;;;;7.73;77.44;98477.55;136752;1279;22451;-70
2023/11/06 05:24:50;;;;;;;3.10;1.60;;;;;;;7.70;77.65;98484.75;136647;1279;22470;-70
2023/11/06 05:27:55;;;;;;;4.30;1.60;;;;;;;7.67;77.79;98492.39;136742;1279;22432;-71
2023/11/06 05:30:56;;;;;;;4.30;1.50;;;;;;;7.62;77.99;98496.27;136769;1272;22429;-71
2023/11/06 05:34:06;;;;;;;4.10;1.50;;;;;;;7.59;78.10;98501.54;136766;1279;22272;-71
2023/11/06 05:37:07;;;;;;;3.30;1.90;;;;;;;7.56;78.28;98510.55;136735;1279;22442;-72
2023/11/06 05:40:12;;;;;;;2.20;1.70;;;;;;;7.53;78.47;98514.66;136740;1279;22505;-70
2023/11/06 05:43:16;;;;;;;3.60;2.00;;;;;;;7.49;78.62;98519.70;136781;1279;22454;-73
2023/11/06 05:46:28;;;;;;;7.10;2.10;;;;;;;7.47;78.86;98528.23;136769;1279;22441;-71
2023/11/06 05:49:28;;;;;;;3.90;1.80;;;;;;;7.45;79.10;98533.58;136674;1279;22462;-71
2023/11/06 05:52:33;;;;;;;2.40;1.60;;;;;;;7.43;79.18;98536.23;136752;1279;22456;-71
2023/11/06 05:55:39;;;;;;;2.60;1.80;;;;;;;7.44;79.37;98543.07;136622;1279;22383;-71
2023/11/06 05:58:42;;;;;;;0.90;0.90;;;;;;;7.46;79.62;98544.02;136734;1279;22467;-71
2023/11/06 06:01:43;;;;;;;2.20;1.20;;;;;;;7.51;79.79;98550.98;136723;1279;23224;-72
2023/11/06 06:04:46;;;;;;;;;;;;;;;7.55;79.83;98557.48;136708;1279;22526;-72
2023/11/06 06:07:46;;;;;;;3.40;1.40;;;;;;;7.58;79.91;98559.56;136725;1279;22969;-72
2023/11/06 06:10:49;;;;;;;2.20;1.20;;;;;;;7.64;79.90;98561.57;136729;1279;22474;-72
2023/11/06 06:13:50;;;;;;;1.70;1.10;;;;;;;7.67;79.92;98566.11;136713;1279;22479;-72
2023/11/06 06:16:51;;;;;;;4.00;1.40;;;;;;;7.71;79.95;98572.79;136739;1279;22504;-72
2023/11/06 06:19:52;;;;;;;3.90;1.90;;;;;;;7.77;80.00;98580.20;136732;1279;22760;-72
2023/11/06 06:22:52;;;;;;;5.90;2.90;;;;;;;7.88;80.04;98583.21;136744;1279;22459;-74
2023/11/06 06:25:54;;;;;;;3.20;1.50;;;;;;;8.02;80.02;98592.94;136733;1279;22241;-72
2023/11/06 06:28:55;;;;;;;4.80;1.30;;;;;;;8.14;79.86;98597.53;136758;1279;22462;-72
2023/11/06 06:31:56;;;;;;;1.30;1.10;;;;;;;8.22;79.86;98613.83;136718;1272;23569;-72
2023/11/06 06:34:58;;;;;;;3.80;1.30;;;;;;;8.27;79.68;98618.32;136710;1279;23302;-72
2023/11/06 06:37:58;;;;;;;2.50;1.40;;;;;;;8.34;79.52;98623.81;136747;1279;22441;-72
2023/11/06 06:40:59;;;;;;;3.60;1.80;;;;;;;8.40;79.61;98633.83;136736;1279;22418;-72
2023/11/06 06:43:59;;;;;;;4.50;1.80;;;;;;;8.46;79.46;98639.84;136767;1279;22440;-72
2023/11/06 06:47:03;;;;;;;3.00;1.70;;;;;;;8.50;79.39;98643.48;136727;1279;22425;-72
2023/11/06 06:50:04;;;;;;;5.90;2.20;;;;;;;8.57;79.42;98647.73;136619;1279;22377;-72
2023/11/06 06:53:04;;;;;;;3.50;1.40;;;;;;;8.63;79.27;98650.36;136735;1279;22410;-72
2023/11/06 06:56:05;;;;;;;2.00;1.30;;;;;;;8.69;79.17;98657.86;136749;1279;22403;-72
2023/11/06 06:59:06;;;;;;;3.40;1.40;;;;;;;8.77;79.05;98663.30;136743;1279;22317;-73
2023/11/06 07:02:06;;;;;;;2.00;1.10;;;;;;;8.84;79.01;98666.65;136741;1276;22477;-74
2023/11/06 07:05:09;;;;;;;1.60;1.30;;;;;;;8.90;78.94;98674.84;136650;1279;23005;-72
2023/11/06 07:08:10;;;;;;;2.50;1.30;;;;;;;8.98;79.01;98676.40;136661;1279;22405;-72
2023/11/06 07:11:10;;;;;;;2.50;1.30;;;;;;;9.05;78.65;98676.42;136701;1279;22403;-72
2023/11/06 07:14:11;;;;;;;3.60;1.60;;;;;;;9.11;78.62;98679.45;136764;1279;23035;-72
2023/11/06 07:17:11;;;;;;;1.80;1.10;;;;;;;9.23;78.36;98681.20;136736;1279;22440;-72
2023/11/06 07:20:15;;;;;;;2.00;0.90;;;;;;;9.33;78.27;98679.55;136770;1270;22375;-72
2023/11/06 07:23:16;;;;;;;2.30;1.10;;;;;;;9.38;78.00;98686.14;136746;1279;22376;-72
2023/11/06 07:26:17;;;;;;;;;;;;;;;9.41;77.84;98694.42;136767;1276;22405;-72
2023/11/06 07:29:17;;;;;;;2.80;0.80;;;;;;;9.41;77.65;98698.63;136772;1279;22371;-72
2023/11/06 07:32:18;;;;;;;1.60;1.20;;;;;;;9.42;77.76;98700.09;136778;1272;22392;-72
2023/11/06 07:35:18;;;;;;;3.50;1.40;;;;;;;9.52;77.77;98704.72;136668;1279;22399;-73
2023/11/06 07:38:19;;;;;;;4.10;1.40;;;;;;;9.63;77.68;98704.23;136780;1279;22467;-72
2023/11/06 07:41:19;;;;;;;5.00;1.20;;;;;;;9.77;77.54;98705.91;136784;1279;22407;-72
2023/11/06 07:44:20;;;;;;;3.10;1.40;;;;;;;9.96;77.85;98708.95;136773;1279;23148;-72
2023/11/06 07:47:22;;;;;;;4.50;1.80;;;;;;;10.28;77.84;98714.80;136775;1279;22393;-72
2023/11/06 07:50:23;;;;;;;3.10;1.40;;;;;;;10.69;77.35;98719.11;136652;1273;22451;-73
2023/11/06 07:53:30;;;;;;;;;;;;;;;11.11;76.68;98716.27;136759;1279;22483;-72
2023/11/06 07:56:38;;;;;;;2.10;1.20;;;;;;;11.54;75.90;98712.39;136769;1276;22383;-72
2023/11/06 07:59:42;;;;;;;3.10;1.10;;;;;;;12.02;75.03;98715.67;136779;1279;22445;-73
2023/11/06 08:02:44;;;;;;;2.60;1.10;;;;;;;12.46;73.81;98718.89;136669;1279;22512;-72
2023/11/06 08:05:50;;;;;;;3.50;1.10;;;;;;;12.91;72.84;98726.35;136744;1279;22258;-72
2023/11/06 08:09:06;;;;;;;2.00;1.00;;;;;;;13.18;71.96;98731.75;136761;1279;23239;-72
2023/11/06 08:12:14;;;;;;;3.50;1.30;;;;;;;13.41;71.31;98735.48;136771;1279;22382;-72
2023/11/06 08:15:14;;;;;;;2.00;1.20;;;;;;;13.34;69.95;98739.89;136810;1279;23482;-72
2023/11/06 08:18:22;;;;;;;2.50;1.30;;;;;;;13.21;69.36;98745.05;136765;1279;23616;-72
2023/11/06 08:21:22;;;;;;;1.80;1.30;;;;;;;13.42;69.03;98753.95;136777;1275;23390;-72
2023/11/06 08:24:23;;;;;;;3.10;1.20;;;;;;;13.65;67.97;98757.08;136762;1279;22467;-72
2023/11/06 08:27:23;;;;;;;;;;;;;;;13.56;68.03;98761.64;136798;1276;22410;-72
2023/11/06 08:30:24;;;;;;;1.60;1.20;;;;;;;13.36;67.67;98767.30;136728;1279;22375;-72
2023/11/06 08:33:26;;;;;;;2.50;1.10;;;;;;;13.12;67.12;98770.60;136774;1279;22424;-72
2023/11/06 08:36:27;;;;;;;5.40;1.50;;;;;;;12.87;67.36;98779.61;136792;1279;22380;-72
2023/11/06 08:39:27;;;;;;;;;;;;;;;12.70;67.48;98790.04;136770;1279;23140;-72
2023/11/06 08:42:37;;;;;;;1.90;1.20;;;;;;;12.55;67.48;98801.07;136755;1275;22330;-72
2023/11/06 08:45:37;;;;;;;3.00;1.20;;;;;;;12.43;67.40;98807.10;136788;1279;23092;-72
2023/11/06 08:48:41;;;;;;;3.40;1.10;;;;;;;12.34;67.88;98812.89;136786;1279;22370;-72
2023/11/06 08:51:45;;;;;;;3.50;1.20;;;;;;;12.29;67.97;98816.92;136775;1279;22377;-72
2023/11/06 08:54:48;;;;;;;2.50;1.50;;;;;;;12.25;67.94;98820.13;136727;1279;22421;-72
2023/11/06 08:57:51;;;;;;;4.60;1.80;;;;;;;12.23;67.91;98827.57;136767;1279;22406;-72
2023/11/06 09:00:55;;;;;;;4.70;2.20;;;;;;;12.20;67.79;98839.16;136810;1279;22427;-72
2023/11/06 09:03:59;;;;;;;;;;;;;;;12.14;67.95;98843.27;136823;1272;22452;-73
2023/11/06 09:07:03;;;;;;;9.10;3.90;;;;;;;12.09;67.92;98851.02;136772;1279;23193;-72
2023/11/06 09:10:07;;;;;;;5.40;2.40;;;;;;;12.08;68.42;98859.52;136797;1272;23284;-72
2023/11/06 09:13:07;;;;;;;5.20;2.30;;;;;;;12.06;68.34;98862.59;136790;1272;22420;-72
2023/11/06 09:16:09;;;;;;;6.70;2.00;;;;;;;12.05;68.43;98869.10;136780;1279;22379;-72
2023/11/06 09:19:12;;;;;;;3.70;1.40;;;;;;;12.13;68.34;98876.58;136780;1277;23118;-73
2023/11/06 09:22:13;;;;;;;12.00;3.90;;;;;;;12.23;68.27;98874.72;136793;1279;22523;-75
2023/11/06 09:25:14;;;;;;;21.00;8.80;;;;;;;12.36;68.12;98885.15;136365;1280;22287;-74
2023/11/06 09:28:15;;;;;;;6.40;2.30;;;;;;;12.46;67.64;98886.13;136386;1284;22535;-73
2023/11/06 09:31:21;;;;;;;;;;;;;;;12.44;67.54;98895.01;136419;1284;23637;-73
2023/11/06 09:34:28;;;;;;;8.90;4.20;;;;;;;12.37;67.93;98894.98;136404;1284;23067;-73
2023/11/06 09:37:30;;;;;;;17.30;7.10;;;;;;;12.27;67.67;98894.46;136403;1284;22483;-73
2023/11/06 09:40:49;;;;;;;17.30;7.10;;;;;;;12.17;67.93;98894.61;136310;1284;22435;-74
2023/11/06 09:43:49;;;;;;;6.50;2.70;;;;;;;12.07;67.90;98899.89;136392;1284;22502;-74
2023/11/06 09:46:50;;;;;;;3.00;1.80;;;;;;;11.97;68.08;98907.27;136394;1277;22499;-73
2023/11/06 09:50:10;;;;;;;2.90;1.40;;;;;;;11.93;68.25;98908.91;136382;1278;22288;-73
2023/11/06 09:53:11;;;;;;;6.20;2.00;;;;;;;11.87;68.52;98910.29;136385;1278;22424;-73
2023/11/06 09:56:12;;;;;;;6.50;2.60;;;;;;;11.84;68.70;98916.89;136361;1284;22257;-74
2023/11/06 09:59:12;;;;;;;;;;;;;;;11.79;68.81;98912.42;136394;1284;23462;-73
2023/11/06 10:02:13;;;;;;;;;;;;;;;11.74;68.99;98910.02;136383;1284;22494;-73
2023/11/06 10:05:15;;;;;;;3.00;1.90;;;;;;;11.74;69.18;98909.60;136394;1284;22472;-74
2023/11/06 10:08:32;;;;;;;4.60;3.30;;;;;;;11.73;69.14;98905.59;136480;1279;22454;-73
2023/11/06 10:11:34;;;;;;;3.30;2.50;;;;;;;11.75;69.23;98910.46;136787;1279;22434;-74
2023/11/06 10:14:47;;;;;;;5.50;3.40;;;;;;;11.81;69.31;98916.02;136805;1279;23543;-74
2023/11/06 10:17:48;;;;;;;6.10;2.70;;;;;;;11.86;69.18;98919.20;136785;1279;22378;-73
2023/11/06 10:20:50;;;;;;;9.80;3.60;;;;;;;11.89;69.31;98917.70;136766;1277;22945;-74
2023/11/06 10:23:57;;;;;;;5.30;2.50;;;;;;;11.94;69.37;98919.98;136617;1279;22908;-74
2023/11/06 10:26:57;;;;;;;5.00;3.00;;;;;;;12.01;69.39;98929.55;136784;1279;22429;-75
2023/11/06 10:30:04;;;;;;;6.00;2.40;;;;;;;12.06;69.22;98932.90;136671;1279;143890;-74
2023/11/06 10:33:18;;;;;;;5.70;2.50;;;;;;;12.11;68.91;98935.27;136602;1278;22492;-75
2023/11/06 10:36:28;;;;;;;3.10;1.60;;;;;;;12.19;68.90;98932.15;136611;1279;23132;-75
2023/11/06 10:39:32;;;;;;;12.80;7.20;;;;;;;12.27;68.81;98931.91;136770;1279;22438;-74
2023/11/06 10:42:38;;;;;;;5.40;2.70;;;;;;;12.32;68.72;98935.61;136790;1279;22431;-75
2023/11/06 10:45:41;;;;;;;9.20;4.60;;;;;;;12.35;68.63;98939.23;136764;1279;22512;-75
2023/11/06 10:49:11;;;;;;;7.40;2.60;;;;;;;12.33;68.40;98938.24;136814;1279;22449;-72
2023/11/06 10:52:14;;;;;;;3.80;1.80;;;;;;;12.30;68.70;98938.81;136742;1279;23573;-73
2023/11/06 10:55:22;;;;;;;10.10;5.30;;;;;;;12.28;68.69;98934.28;136817;1279;22438;-74
2023/11/06 10:58:24;;;;;;;3.70;2.00;;;;;;;12.28;68.38;98935.47;136737;1279;22435;-73
2023/11/06 11:01:28;;;;;;;4.70;2.30;;;;;;;12.29;68.67;98937.35;136764;1277;22382;-73
2023/11/06 11:04:36;;;;;;;6.70;2.50;;;;;;;12.37;68.64;98939.10;136742;1279;22440;-74
2023/11/06 11:07:38;;;;;;;3.80;1.90;;;;;;;12.58;69.07;98937.83;136818;1279;23287;-74
2023/11/06 11:10:38;;;;;;;3.70;2.30;;;;;;;12.79;68.42;98938.06;136786;1279;22440;-73
2023/11/06 11:13:50;;;;;;;3.60;1.50;;;;;;;12.89;67.66;98945.02;136786;1279;22339;-73
2023/11/06 11:16:54;;;;;;;3.80;1.80;;;;;;;12.90;66.69;98947.28;136809;1279;22613;-73
2023/11/06 11:19:56;;;;;;;3.20;1.50;;;;;;;12.96;66.35;98956.67;136807;1271;22469;-73
2023/11/06 11:23:06;;;;;;;1.40;1.30;;;;;;;13.13;66.69;98954.31;136761;1276;22272;-73
2023/11/06 11:26:09;;;;;;;4.40;1.10;;;;;;;13.19;66.59;98964.41;136690;1271;22470;-73
2023/11/06 11:29:12;;;;;;;2.50;1.40;;;;;;;13.27;66.28;98963.04;136776;1279;22290;-73
2023/11/06 11:32:13;;;;;;;3.20;2.10;;;;;;;13.38;65.41;98964.47;136796;1279;23135;-73
2023/11/06 11:35:26;;;;;;;1.90;1.10;;;;;;;13.49;65.13;98967.17;136780;1279;22257;-73
2023/11/06 11:38:35;;;;;;;2.00;1.20;;;;;;;13.63;65.52;98971.76;136759;1279;22429;-73
2023/11/06 11:42:04;;;;;;;5.00;1.40;;;;;;;13.83;64.07;98973.39;136776;1278;22409;-73
2023/11/06 11:45:08;;;;;;;1.90;1.20;;;;;;;13.87;63.27;98971.52;136768;1276;22389;-73
2023/11/06 11:48:08;;;;;;;4.70;0.80;;;;;;;13.90;62.93;98974.54;136780;1269;22396;-73
2023/11/06 11:51:09;;;;;;;2.60;1.10;;;;;;;13.73;61.89;98982.39;136782;1279;22486;-73
2023/11/06 11:54:25;;;;;;;3.90;1.20;;;;;;;13.54;62.40;98991.11;136724;1279;22440;-73
2023/11/06 11:57:32;;;;;;;2.80;1.10;;;;;;;13.38;62.60;98993.52;136757;1279;22369;-73
2023/11/06 12:00:42;;;;;;;1.30;0.90;;;;;;;13.26;63.01;98991.02;136779;1279;22237;-73
2023/11/06 12:03:49;;;;;;;2.90;1.20;;;;;;;13.21;63.32;98991.98;136799;1279;22463;-73
2023/11/06 12:06:59;;;;;;;5.90;1.50;;;;;;;13.14;63.11;98999.99;136787;1279;22504;-73
2023/11/06 12:10:01;;;;;;;6.90;1.20;;;;;;;12.99;63.30;99005.38;136793;1279;22405;-73
2023/11/06 12:13:12;;;;;;;3.70;1.70;;;;;;;12.88;63.81;99008.52;136785;1279;22402;-73
2023/11/06 12:16:19;;;;;;;;;;;;;;;12.80;64.19;99007.55;136777;1279;22480;-73
2023/11/06 12:19:21;;;;;;;4.20;1.40;;;;;;;12.72;64.50;99009.98;136798;1279;23495;-73
2023/11/06 12:22:23;;;;;;;3.80;1.40;;;;;;;12.65;64.98;99017.61;136767;1279;22432;-72
2023/11/06 12:25:33;;;;;;;2.80;1.60;;;;;;;12.61;65.15;99017.69;136816;1277;22439;-73
2023/11/06 12:28:47;;;;;;;6.00;1.70;;;;;;;12.55;65.61;99023.80;136794;1279;22394;-72
2023/11/06 12:31:47;;;;;;;5.00;1.30;;;;;;;12.50;66.07;99026.99;136803;1279;22627;-73
2023/11/06 12:35:14;;;;;;;3.20;1.40;;;;;;;12.49;66.33;99026.17;136806;1272;23183;-72
2023/11/06 12:38:35;;;;;;;2.20;1.30;;;;;;;12.49;66.20;99027.98;136805;1279;22453;-73
2023/11/06 12:41:42;;;;;;;2.40;1.40;;;;;;;12.47;66.43;99028.92;136818;1279;22451;-73
2023/11/06 12:44:43;;;;;;;2.40;1.60;;;;;;;12.45;66.69;99029.01;136799;1279;22435;-73
2023/11/06 12:47:44;;;;;;;2.30;1.30;;;;;;;12.42;66.48;99033.59;136776;1279;23051;-73
2023/11/06 12:51:14;;;;;;;1.90;1.20;;;;;;;12.38;66.60;99042.52;136758;1279;23200;-73
2023/11/06 12:54:17;;;;;;;1.00;0.90;;;;;;;12.32;66.57;99049.10;136784;1276;22420;-73
2023/11/06 12:57:21;;;;;;;1.70;1.20;;;;;;;12.27;66.64;99057.65;136649;1279;23174;-73
2023/11/06 13:00:26;;;;;;;3.20;1.10;;;;;;;12.23;66.79;99061.90;136801;1279;22439;-73
2023/11/06 13:03:27;;;;;;;3.10;1.40;;;;;;;12.22;66.69;99063.27;136774;1276;22450;-72
2023/11/06 13:06:29;;;;;;;6.40;1.40;;;;;;;12.21;66.52;99069.58;136619;1279;23209;-72
2023/11/06 13:09:30;;;;;;;4.70;1.20;;;;;;;12.21;66.74;99078.45;136628;1279;22947;-73
2023/11/06 13:12:30;;;;;;;3.40;1.70;;;;;;;12.22;66.72;99080.87;136766;1279;22417;-73
2023/11/06 13:15:32;;;;;;;8.30;3.50;;;;;;;12.20;66.76;99086.60;136788;1266;22375;-73
2023/11/06 13:18:34;;;;;;;6.40;2.00;;;;;;;12.18;66.60;99090.81;136768;1279;22378;-72
2023/11/06 13:21:34;;;;;;;3.50;2.70;;;;;;;12.14;66.70;99098.17;136620;1280;22441;-73
2023/11/06 13:24:37;;;;;;;2.50;1.70;;;;;;;12.12;66.87;99103.28;136794;1276;22264;-73
2023/11/06 13:27:38;;;;;;;4.10;1.60;;;;;;;12.07;66.92;99111.66;136782;1279;22425;-73
2023/11/06 13:30:39;;;;;;;4.90;1.60;;;;;;;12.02;66.94;99112.27;136775;1279;22268;-73
2023/11/06 13:33:41;;;;;;;2.20;1.00;;;;;;;12.00;67.12;99115.64;136794;1279;22374;-73
2023/11/06 13:36:48;;;;;;;3.90;1.60;;;;;;;11.97;67.34;99122.18;136772;1279;22387;-73
2023/11/06 13:39:49;;;;;;;2.00;1.20;;;;;;;11.96;67.55;99124.83;136807;1279;22342;-72
2023/11/06 13:43:03;;;;;;;2.90;0.90;;;;;;;11.96;67.57;99123.07;136765;1279;22400;-72
2023/11/06 13:46:05;;;;;;;4.40;1.40;;;;;;;11.94;67.63;99133.17;136630;1279;23224;-73
2023/11/06 13:49:09;;;;;;;3.80;2.10;;;;;;;11.91;67.74;99139.95;136771;1279;22460;-73
2023/11/06 13:52:23;;;;;;;5.20;1.80;;;;;;;11.89;67.82;99139.73;136768;1279;23252;-73
2023/11/06 13:55:31;;;;;;;8.30;1.90;;;;;;;11.86;68.01;99146.34;136789;1276;22246;-73
2023/11/06 13:58:33;;;;;;;5.80;2.50;;;;;;;11.84;68.32;99154.54;136764;1279;22501;-72
2023/11/06 14:01:47;;;;;;;3.10;2.10;;;;;;;11.85;69.82;99171.18;136759;1279;23144;-72
2023/11/06 14:04:57;;;;;;;4.30;1.10;;;;;;;11.63;70.80;99173.36;136751;1279;23514;-73
2023/11/06 14:07:59;;;;;;;3.30;1.30;;;;;;;11.42;71.43;99175.98;136773;1279;23077;-73
2023/11/06 14:11:01;;;;;;;4.10;1.80;;;;;;;11.24;72.00;99178.44;136779;1277;22424;-73
2023/11/06 14:14:05;;;;;;;2.80;1.80;;;;;;;11.12;72.42;99181.16;136765;1279;22462;-73
2023/11/06 14:17:07;;;;;;;6.30;2.50;;;;;;;11.00;73.01;99185.36;136759;1279;22459;-73
2023/11/06 14:20:21;;;;;;;3.90;1.80;;;;;;;10.89;73.46;99186.75;136766;1279;22438;-73
2023/11/06 14:23:27;;;;;;;5.50;3.30;;;;;;;10.82;73.87;99195.27;136790;1279;22231;-73
2023/11/06 14:26:37;;;;;;;4.10;2.10;;;;;;;10.79;74.43;99195.84;136750;1279;22364;-73
2023/11/06 14:29:47;;;;;;;3.10;1.90;;;;;;;10.72;74.74;99198.03;136760;1279;22417;-72